createdAt,value
2022-09-09T00:00:23.615Z,16.40
2022-09-09T00:03:09.886Z,16.30
2022-09-09T00:06:03.307Z,16.20
2022-09-09T00:08:56.825Z,16.20
2022-09-09T00:11:31.977Z,16.10
2022-09-09T00:14:03.607Z,16.10
2022-09-09T00:16:36.081Z,16.10
2022-09-09T00:19:22.455Z,16.10
2022-09-09T00:22:26.269Z,16.10
2022-09-09T00:24:55.381Z,16.00
2022-09-09T00:27:46.383Z,15.90
2022-09-09T00:30:23.319Z,15.90
2022-09-09T00:32:55.139Z,15.90
2022-09-09T00:35:24.862Z,15.90
2022-09-09T00:37:54.257Z,15.90
2022-09-09T00:40:51.355Z,15.80
2022-09-09T00:43:31.267Z,15.80
2022-09-09T00:46:31.278Z,15.70
2022-09-09T00:49:22.735Z,15.80
2022-09-09T00:52:26.823Z,15.80
2022-09-09T00:54:53.556Z,15.70
2022-09-09T00:57:30.130Z,15.60
2022-09-09T01:00:05.024Z,15.60
2022-09-09T01:02:59.249Z,15.60
2022-09-09T01:05:51.900Z,15.70
2022-09-09T01:08:59.517Z,15.70
2022-09-09T01:11:45.159Z,15.70
2022-09-09T01:14:28.371Z,15.80
2022-09-09T01:16:57.461Z,15.80
2022-09-09T01:19:47.618Z,15.90
2022-09-09T01:22:33.922Z,15.90
2022-09-09T01:25:19.605Z,16.00
2022-09-09T01:27:49.528Z,16.00
2022-09-09T01:30:19.184Z,16.00
2022-09-09T01:32:49.479Z,15.90
2022-09-09T01:35:57.847Z,15.90
2022-09-09T01:38:26.330Z,15.90
2022-09-09T01:40:54.068Z,15.90
2022-09-09T01:43:22.493Z,16.00
2022-09-09T01:45:52.201Z,16.00
2022-09-09T01:48:20.113Z,16.10
2022-09-09T01:50:46.927Z,16.20
2022-09-09T01:53:14.548Z,16.30
2022-09-09T01:55:47.522Z,16.30
2022-09-09T01:58:26.372Z,16.40
2022-09-09T02:01:04.011Z,16.40
2022-09-09T02:03:34.821Z,16.50
2022-09-09T02:06:25.174Z,16.50
2022-09-09T02:08:56.172Z,16.50
2022-09-09T02:11:25.665Z,16.50
2022-09-09T02:14:20.928Z,16.50
2022-09-09T02:16:58.603Z,16.50
2022-09-09T02:19:34.151Z,16.40
2022-09-09T02:22:02.360Z,16.40
2022-09-09T02:24:32.668Z,16.40
2022-09-09T02:27:01.760Z,16.40
2022-09-09T02:29:48.346Z,16.40
2022-09-09T02:32:22.801Z,16.50
2022-09-09T02:34:57.155Z,16.50
2022-09-09T02:37:29.530Z,16.50
2022-09-09T02:39:56.759Z,16.50
2022-09-09T02:42:24.951Z,16.50
2022-09-09T02:44:51.746Z,16.50
2022-09-09T02:47:42.831Z,16.50
2022-09-09T02:50:23.704Z,16.60
2022-09-09T02:53:00.122Z,16.60
2022-09-09T02:55:36.038Z,16.60
2022-09-09T02:58:07.086Z,16.60
2022-09-09T03:00:36.910Z,16.70
2022-09-09T03:03:09.756Z,16.70
2022-09-09T03:05:36.901Z,16.70
2022-09-09T03:08:05.104Z,16.70
2022-09-09T03:10:32.742Z,16.70
2022-09-09T03:12:59.645Z,16.70
2022-09-09T03:15:30.110Z,16.60
2022-09-09T03:17:58.108Z,16.60
2022-09-09T03:20:27.134Z,16.50
2022-09-09T03:22:54.615Z,16.50
2022-09-09T03:25:24.877Z,16.50
2022-09-09T03:27:55.322Z,16.50
2022-09-09T03:30:27.947Z,16.40
2022-09-09T03:32:56.285Z,16.40
2022-09-09T03:35:23.080Z,16.40
2022-09-09T03:37:50.400Z,16.40
2022-09-09T03:40:17.497Z,16.40
2022-09-09T03:42:44.295Z,16.40
2022-09-09T03:45:11.800Z,16.40
2022-09-09T03:47:39.043Z,16.30
2022-09-09T03:50:09.488Z,16.30
2022-09-09T03:52:41.784Z,16.30
2022-09-09T03:55:09.728Z,16.40
2022-09-09T03:57:36.987Z,16.30
2022-09-09T04:00:09.000Z,16.30
2022-09-09T04:02:35.880Z,16.30
2022-09-09T04:05:02.824Z,16.30
2022-09-09T04:07:29.655Z,16.30
2022-09-09T04:09:56.450Z,16.30
2022-09-09T04:12:23.517Z,16.40
2022-09-09T04:14:50.370Z,16.30
2022-09-09T04:17:18.355Z,16.30
2022-09-09T04:19:45.360Z,16.30
2022-09-09T04:22:12.346Z,16.20
2022-09-09T04:24:39.336Z,16.20
2022-09-09T04:27:06.191Z,16.30
2022-09-09T04:29:32.984Z,16.30
2022-09-09T04:31:59.873Z,16.30
2022-09-09T04:34:26.748Z,16.30
2022-09-09T04:36:53.649Z,16.30
2022-09-09T04:39:20.697Z,16.30
2022-09-09T04:41:48.275Z,16.30
2022-09-09T04:44:15.317Z,16.30
2022-09-09T04:46:42.517Z,16.40
2022-09-09T04:49:14.445Z,16.30
2022-09-09T04:51:41.903Z,16.30
2022-09-09T04:54:08.712Z,16.40
2022-09-09T04:56:35.549Z,16.40
2022-09-09T04:59:03.974Z,16.40
2022-09-09T05:01:30.894Z,16.40
2022-09-09T05:03:57.777Z,16.30
2022-09-09T05:06:25.204Z,16.40
2022-09-09T05:08:52.396Z,16.30
2022-09-09T05:11:25.323Z,16.30
2022-09-09T05:13:52.378Z,16.40
2022-09-09T05:16:19.912Z,16.40
2022-09-09T05:18:47.661Z,16.30
2022-09-09T05:21:16.426Z,16.30
2022-09-09T05:23:43.578Z,16.30
2022-09-09T05:26:17.448Z,16.30
2022-09-09T05:28:45.237Z,16.30
2022-09-09T05:31:13.943Z,16.30
2022-09-09T05:33:44.117Z,16.30
2022-09-09T05:36:16.315Z,16.40
2022-09-09T05:38:44.033Z,16.40
2022-09-09T05:41:12.290Z,16.40
2022-09-09T05:43:39.993Z,16.40
2022-09-09T05:46:11.652Z,16.40
2022-09-09T05:48:40.931Z,16.40
2022-09-09T05:51:11.804Z,16.40
2022-09-09T05:53:39.379Z,16.50
2022-09-09T05:56:11.589Z,16.50
2022-09-09T05:58:39.821Z,16.50
2022-09-09T06:01:12.349Z,16.50
2022-09-09T06:03:41.049Z,16.50
2022-09-09T06:06:10.403Z,16.50
2022-09-09T06:08:40.061Z,16.60
2022-09-09T06:11:13.088Z,16.80
2022-09-09T06:13:40.867Z,16.80
2022-09-09T06:16:12.558Z,16.90
2022-09-09T06:18:40.549Z,16.90
2022-09-09T06:21:11.732Z,17.00
2022-09-09T06:23:41.563Z,17.00
2022-09-09T06:26:12.481Z,17.10
2022-09-09T06:28:39.497Z,17.10
2022-09-09T06:31:09.100Z,17.20
2022-09-09T06:33:40.319Z,17.20
2022-09-09T06:36:09.024Z,17.30
2022-09-09T06:38:36.000Z,17.20
2022-09-09T06:41:03.524Z,17.20
2022-09-09T06:43:30.798Z,17.20
2022-09-09T06:46:02.531Z,17.20
2022-09-09T06:48:32.715Z,17.20
2022-09-09T06:51:12.184Z,17.30
2022-09-09T06:53:43.257Z,17.30
2022-09-09T06:56:24.200Z,17.40
2022-09-09T06:58:53.234Z,17.50
2022-09-09T07:01:25.518Z,17.60
2022-09-09T07:03:57.084Z,17.80
2022-09-09T07:06:26.207Z,17.80
2022-09-09T07:08:58.831Z,17.80
2022-09-09T07:11:33.879Z,17.90
2022-09-09T07:14:01.725Z,17.90
2022-09-09T07:16:30.585Z,18.10
2022-09-09T07:19:01.563Z,18.10
2022-09-09T07:21:29.881Z,18.20
2022-09-09T07:23:57.927Z,18.20
2022-09-09T07:26:27.473Z,18.30
2022-09-09T07:28:54.980Z,18.30
2022-09-09T07:31:27.903Z,18.40
2022-09-09T07:33:55.050Z,18.50
2022-09-09T07:36:27.916Z,18.40
2022-09-09T07:38:59.597Z,18.40
2022-09-09T07:41:35.242Z,18.50
2022-09-09T07:44:13.775Z,18.60
2022-09-09T07:46:40.965Z,18.70
2022-09-09T07:49:08.599Z,18.70
2022-09-09T07:51:37.967Z,18.60
2022-09-09T07:54:07.760Z,18.50
2022-09-09T07:56:34.836Z,18.50
2022-09-09T07:59:02.302Z,18.40
2022-09-09T08:01:32.739Z,18.40
2022-09-09T08:04:02.175Z,18.40
2022-09-09T08:06:31.440Z,18.40
2022-09-09T08:08:58.326Z,18.40
2022-09-09T08:11:27.120Z,18.40
2022-09-09T08:13:57.910Z,18.50
2022-09-09T08:16:31.031Z,18.60
2022-09-09T08:18:58.850Z,18.70
2022-09-09T08:21:31.022Z,19.00
2022-09-09T08:23:59.743Z,19.10
2022-09-09T08:26:31.647Z,19.20
2022-09-09T08:29:00.495Z,19.10
2022-09-09T08:31:36.801Z,18.90
2022-09-09T08:34:05.068Z,19.20
2022-09-09T08:36:35.832Z,19.40
2022-09-09T08:39:04.021Z,19.30
2022-09-09T08:42:01.769Z,19.30
2022-09-09T08:45:10.879Z,19.40
2022-09-09T08:48:05.812Z,19.30
2022-09-09T08:50:41.488Z,19.20
2022-09-09T08:53:27.814Z,19.30
2022-09-09T08:55:59.972Z,19.50
2022-09-09T08:58:28.366Z,19.60
2022-09-09T09:01:02.451Z,19.70
2022-09-09T09:04:00.630Z,19.70
2022-09-09T09:06:37.680Z,19.90
2022-09-09T09:09:12.430Z,20.20
2022-09-09T09:11:43.965Z,20.40
2022-09-09T09:14:23.699Z,20.40
2022-09-09T09:17:04.342Z,20.10
2022-09-09T09:19:34.267Z,19.70
2022-09-09T09:22:19.077Z,19.70
2022-09-09T09:24:57.778Z,19.70
2022-09-09T09:27:40.593Z,20.10
2022-09-09T09:30:36.043Z,20.10
2022-09-09T09:33:15.719Z,20.20
2022-09-09T09:35:44.430Z,20.00
2022-09-09T09:41:11.021Z,19.70
2022-09-09T09:43:41.950Z,19.70
2022-09-09T09:46:17.477Z,19.80
2022-09-09T09:48:46.805Z,19.70
2022-09-09T09:51:24.053Z,19.50
2022-09-09T09:53:53.775Z,19.60
2022-09-09T09:56:30.270Z,20.10
2022-09-09T09:58:58.091Z,20.30
2022-09-09T10:01:30.957Z,20.40
2022-09-09T10:04:02.705Z,20.00
2022-09-09T10:06:39.657Z,20.10
2022-09-09T10:09:29.553Z,20.20
2022-09-09T10:12:20.875Z,20.10
2022-09-09T10:15:02.965Z,20.30
2022-09-09T10:18:27.452Z,20.30
2022-09-09T10:21:00.312Z,20.10
2022-09-09T10:23:27.056Z,20.10
2022-09-09T10:26:05.706Z,20.10
2022-09-09T10:28:41.830Z,19.90
2022-09-09T10:31:30.978Z,20.00
2022-09-09T10:34:08.148Z,19.70
2022-09-09T10:36:39.100Z,19.70
2022-09-09T10:39:26.133Z,19.80
2022-09-09T10:42:06.186Z,19.80
2022-09-09T10:44:45.110Z,19.80
2022-09-09T10:47:45.836Z,19.80
2022-09-09T10:50:59.958Z,19.90
2022-09-09T10:53:27.483Z,19.90
2022-09-09T10:56:15.843Z,20.00
2022-09-09T10:58:49.159Z,19.90
2022-09-09T11:01:56.964Z,20.00
2022-09-09T11:04:37.274Z,20.10
2022-09-09T11:07:12.068Z,20.60
2022-09-09T11:09:49.635Z,20.80
2022-09-09T11:12:21.609Z,21.00
2022-09-09T11:14:56.272Z,21.10
2022-09-09T11:17:37.799Z,21.10
2022-09-09T11:20:07.893Z,21.30
2022-09-09T11:22:37.671Z,21.80
2022-09-09T11:25:17.242Z,22.20
2022-09-09T11:28:23.525Z,22.60
2022-09-09T11:31:10.102Z,22.70
2022-09-09T11:34:04.037Z,22.20
2022-09-09T11:36:51.104Z,22.20
2022-09-09T11:39:41.068Z,21.80
2022-09-09T11:42:41.957Z,21.80
2022-09-09T11:45:25.340Z,22.00
2022-09-09T11:48:02.344Z,22.00
2022-09-09T11:50:33.024Z,22.00
2022-09-09T11:53:15.068Z,21.80
2022-09-09T11:55:42.178Z,21.70
2022-09-09T11:58:14.786Z,21.60
2022-09-09T12:00:46.273Z,21.30
2022-09-09T12:03:41.363Z,21.20
2022-09-09T12:06:34.530Z,21.30
2022-09-09T12:09:26.167Z,21.80
2022-09-09T12:11:53.447Z,21.40
2022-09-09T12:14:48.011Z,21.60
2022-09-09T12:17:17.822Z,21.70
2022-09-09T12:19:44.975Z,21.60
2022-09-09T12:22:28.229Z,21.50
2022-09-09T12:25:09.077Z,21.50
2022-09-09T12:28:00.531Z,21.30
2022-09-09T12:30:38.489Z,21.30
2022-09-09T12:33:25.041Z,21.20
2022-09-09T12:38:44.539Z,21.00
2022-09-09T12:41:27.921Z,20.90
2022-09-09T12:44:09.905Z,20.90
2022-09-09T12:46:45.765Z,21.10
2022-09-09T12:49:35.532Z,21.10
2022-09-09T12:52:28.530Z,21.20
2022-09-09T12:54:55.565Z,20.90
2022-09-09T12:57:26.563Z,20.70
2022-09-09T12:59:54.347Z,20.80
2022-09-09T13:02:21.315Z,20.80
2022-09-09T13:04:48.651Z,20.80
2022-09-09T13:07:17.491Z,20.80
2022-09-09T13:09:46.555Z,20.90
2022-09-09T13:12:20.612Z,20.80
2022-09-09T13:14:51.914Z,21.00
2022-09-09T13:17:31.825Z,21.00
2022-09-09T13:19:58.945Z,21.00
2022-09-09T13:22:31.780Z,20.90
2022-09-09T13:25:04.189Z,20.80
2022-09-09T13:27:35.341Z,20.60
2022-09-09T13:30:03.104Z,20.50
2022-09-09T13:32:29.987Z,20.50
2022-09-09T13:34:59.176Z,20.70
2022-09-09T13:37:37.322Z,20.80
2022-09-09T13:40:07.343Z,21.10
2022-09-09T13:42:40.093Z,22.20
2022-09-09T13:45:07.595Z,22.90
2022-09-09T13:47:37.671Z,23.30
2022-09-09T13:50:24.280Z,22.30
2022-09-09T13:52:59.454Z,21.80
2022-09-09T13:55:28.852Z,21.20
2022-09-09T13:57:58.044Z,21.20
2022-09-09T14:00:25.983Z,21.50
2022-09-09T14:02:52.847Z,21.20
2022-09-09T14:05:20.424Z,21.40
2022-09-09T14:07:50.166Z,21.50
2022-09-09T14:10:20.341Z,21.20
2022-09-09T14:12:47.822Z,21.10
2022-09-09T14:15:15.603Z,21.00
2022-09-09T14:17:43.021Z,20.70
2022-09-09T14:20:11.215Z,21.00
2022-09-09T14:22:38.030Z,21.30
2022-09-09T14:25:06.500Z,22.80
2022-09-09T14:27:33.693Z,22.90
2022-09-09T14:30:01.936Z,22.90
2022-09-09T14:32:28.970Z,23.20
2022-09-09T14:34:56.115Z,23.00
2022-09-09T14:37:23.024Z,23.10
2022-09-09T14:39:51.564Z,22.50
2022-09-09T14:42:19.875Z,22.80
2022-09-09T14:44:46.852Z,23.60
2022-09-09T14:47:13.699Z,25.10
2022-09-09T14:49:42.576Z,26.50
2022-09-09T14:52:12.500Z,26.80
2022-09-09T14:54:39.348Z,26.20
2022-09-09T14:57:06.208Z,25.70
2022-09-09T14:59:33.029Z,26.00
2022-09-09T15:02:01.813Z,25.50
2022-09-09T15:04:28.750Z,25.30
2022-09-09T15:06:55.609Z,24.20
2022-09-09T15:09:22.540Z,23.50
2022-09-09T15:11:49.380Z,23.20
2022-09-09T15:14:16.238Z,22.70
2022-09-09T15:16:43.092Z,22.10
2022-09-09T15:19:10.353Z,22.10
2022-09-09T15:21:38.870Z,21.70
2022-09-09T15:24:08.392Z,21.30
2022-09-09T15:26:36.652Z,21.20
2022-09-09T15:29:03.541Z,21.30
2022-09-09T15:31:32.961Z,21.10
2022-09-09T15:34:07.722Z,20.90
2022-09-09T15:36:37.170Z,20.80
2022-09-09T15:39:06.904Z,20.60
2022-09-09T15:41:34.492Z,20.50
2022-09-09T15:44:02.113Z,20.50
2022-09-09T15:46:37.381Z,20.20
2022-09-09T15:51:44.526Z,19.90
2022-09-09T15:54:20.159Z,20.10
2022-09-09T15:56:49.392Z,19.80
2022-09-09T15:59:16.185Z,20.00
2022-09-09T16:01:44.965Z,19.90
2022-09-09T16:04:12.027Z,19.90
2022-09-09T16:06:40.096Z,20.00
2022-09-09T16:09:08.190Z,20.10
2022-09-09T16:11:37.734Z,20.00
2022-09-09T16:14:05.200Z,19.90
2022-09-09T16:16:32.477Z,19.90
2022-09-09T16:19:03.127Z,19.90
2022-09-09T16:21:33.001Z,19.80
2022-09-09T16:24:02.077Z,19.90
2022-09-09T16:26:31.699Z,20.00
2022-09-09T16:29:00.547Z,19.80
2022-09-09T16:31:28.916Z,19.70
2022-09-09T16:33:56.082Z,19.60
2022-09-09T16:36:28.301Z,19.60
2022-09-09T16:38:56.621Z,19.50
2022-09-09T16:41:24.268Z,19.60
2022-09-09T16:43:58.169Z,19.70
2022-09-09T16:46:26.401Z,19.60
2022-09-09T16:48:53.303Z,19.40
2022-09-09T16:51:26.067Z,19.30
2022-09-09T16:53:54.437Z,19.30
2022-09-09T16:56:26.151Z,19.10
2022-09-09T16:58:58.415Z,19.00
2022-09-09T17:01:30.307Z,19.00
2022-09-09T17:04:02.127Z,18.90
2022-09-09T17:06:35.591Z,18.80
2022-09-09T17:09:04.934Z,18.70
2022-09-09T17:11:31.722Z,18.70
2022-09-09T17:13:59.328Z,18.60
2022-09-09T17:16:29.650Z,18.50
2022-09-09T17:18:57.871Z,18.50
2022-09-09T17:21:28.291Z,18.40
2022-09-09T17:23:55.947Z,18.40
2022-09-09T17:26:27.661Z,18.30
2022-09-09T17:28:59.483Z,18.20
2022-09-09T17:31:28.535Z,18.30
2022-09-09T17:33:56.418Z,18.30
2022-09-09T17:36:27.254Z,18.10
2022-09-09T17:38:54.903Z,18.00
2022-09-09T17:41:30.623Z,17.90
2022-09-09T17:43:59.487Z,17.80
2022-09-09T17:46:33.579Z,17.80
2022-09-09T17:49:08.996Z,17.80
2022-09-09T17:51:36.552Z,17.70
2022-09-09T17:54:08.800Z,17.60
2022-09-09T17:56:36.747Z,17.60
2022-09-09T17:59:06.297Z,17.60
2022-09-09T18:01:35.847Z,17.60
2022-09-09T18:04:05.367Z,17.60
2022-09-09T18:06:44.009Z,17.60
2022-09-09T18:09:14.180Z,17.60
2022-09-09T18:11:45.462Z,17.60
2022-09-09T18:14:18.146Z,17.50
2022-09-09T18:16:47.076Z,17.60
2022-09-09T18:19:20.447Z,17.50
2022-09-09T18:21:47.795Z,17.60
2022-09-09T18:24:17.451Z,17.60
2022-09-09T18:26:45.607Z,17.60
2022-09-09T18:29:15.471Z,17.60
2022-09-09T18:31:42.602Z,17.40
2022-09-09T18:34:12.787Z,17.40
2022-09-09T18:36:44.437Z,17.40
2022-09-09T18:39:13.005Z,17.30
2022-09-09T18:41:55.331Z,17.30
2022-09-09T18:44:26.204Z,17.30
2022-09-09T18:46:53.862Z,17.20
2022-09-09T18:49:22.398Z,17.20
2022-09-09T18:51:49.317Z,17.10
2022-09-09T18:54:20.515Z,17.10
2022-09-09T18:56:48.290Z,17.00
2022-09-09T18:59:21.083Z,17.00
2022-09-09T19:01:52.745Z,16.90
2022-09-09T19:04:21.983Z,16.90
2022-09-09T19:06:49.932Z,16.90
2022-09-09T19:09:18.696Z,16.90
2022-09-09T19:11:46.346Z,16.80
2022-09-09T19:14:15.540Z,16.80
2022-09-09T19:16:42.969Z,16.70
2022-09-09T19:19:19.869Z,16.80
2022-09-09T19:21:47.330Z,16.80
2022-09-09T19:24:23.223Z,16.80
2022-09-09T19:26:52.581Z,16.80
2022-09-09T19:29:24.930Z,16.80
2022-09-09T19:32:36.427Z,16.70
2022-09-09T19:34:44.264Z,16.70
2022-09-09T19:37:14.086Z,16.80
2022-09-09T19:39:43.398Z,16.80
2022-09-09T19:42:10.332Z,16.80
2022-09-09T19:44:37.096Z,16.80
2022-09-09T19:47:04.527Z,16.80
2022-09-09T19:49:32.313Z,16.70
2022-09-09T19:51:59.766Z,16.70
2022-09-09T19:54:26.676Z,16.60
2022-09-09T19:56:53.637Z,16.60
2022-09-09T19:59:20.942Z,16.60
2022-09-09T20:01:47.883Z,16.60
2022-09-09T20:04:15.671Z,16.60
2022-09-09T20:06:46.985Z,16.50
2022-09-09T20:09:16.647Z,16.60
2022-09-09T20:11:45.388Z,16.60
2022-09-09T20:14:12.497Z,16.50
2022-09-09T20:16:39.840Z,16.50
2022-09-09T20:19:08.292Z,16.50
2022-09-09T20:21:38.404Z,16.70
2022-09-09T20:24:07.733Z,16.60
2022-09-09T20:26:37.619Z,16.60
2022-09-09T20:29:07.855Z,16.70
2022-09-09T20:31:37.178Z,16.60
2022-09-09T20:34:06.163Z,16.60
2022-09-09T20:36:35.500Z,16.60
2022-09-09T20:39:08.584Z,16.60
2022-09-09T20:41:37.530Z,16.60
2022-09-09T20:44:07.807Z,16.70
2022-09-09T20:46:36.877Z,16.70
2022-09-09T20:49:11.521Z,16.60
2022-09-09T20:51:38.872Z,16.60
2022-09-09T20:54:13.993Z,16.60
2022-09-09T20:56:42.932Z,16.60
2022-09-09T20:59:16.301Z,16.50
2022-09-09T21:01:44.218Z,16.50
2022-09-09T21:04:11.220Z,16.60
2022-09-09T21:06:38.076Z,16.50
2022-09-09T21:09:05.308Z,16.60
2022-09-09T21:11:33.084Z,16.50
2022-09-09T21:13:59.880Z,16.40
2022-09-09T21:16:28.044Z,16.50
2022-09-09T21:18:54.931Z,16.50
2022-09-09T21:21:22.117Z,16.50
2022-09-09T21:23:50.529Z,16.50
2022-09-09T21:26:19.588Z,16.50
2022-09-09T21:28:46.391Z,16.40
2022-09-09T21:31:19.187Z,16.50
2022-09-09T21:33:46.501Z,16.40
2022-09-09T21:36:14.598Z,16.50
2022-09-09T21:38:41.818Z,16.40
2022-09-09T21:41:13.104Z,16.30
2022-09-09T21:43:42.024Z,16.30
2022-09-09T21:46:14.850Z,16.40
2022-09-09T21:48:41.691Z,16.40
2022-09-09T21:53:40.406Z,16.50
2022-09-09T21:56:10.475Z,16.40
2022-09-09T21:58:38.191Z,16.40
2022-09-09T22:01:16.988Z,16.40
2022-09-09T22:03:44.730Z,16.40
2022-09-09T22:06:16.443Z,16.40
2022-09-09T22:08:45.013Z,16.30
2022-09-09T22:11:22.652Z,16.20
2022-09-09T22:13:49.710Z,16.20
2022-09-09T22:16:19.219Z,16.20
2022-09-09T22:18:54.660Z,16.20
2022-09-09T22:21:22.181Z,16.10
2022-09-09T22:23:57.463Z,16.20
2022-09-09T22:26:26.289Z,16.20
2022-09-09T22:28:54.024Z,16.10
2022-09-09T22:31:22.934Z,16.10
2022-09-09T22:33:50.366Z,16.10
2022-09-09T22:36:17.303Z,16.20
2022-09-09T22:38:44.296Z,16.10
2022-09-09T22:41:11.337Z,16.00
2022-09-09T22:43:38.205Z,16.00
2022-09-09T22:46:05.093Z,16.00
2022-09-09T22:48:36.841Z,16.00
2022-09-09T22:51:06.506Z,16.00
2022-09-09T22:53:35.706Z,16.00
2022-09-09T22:56:05.475Z,16.00
2022-09-09T22:58:34.528Z,15.90
2022-09-09T23:01:06.937Z,15.90
2022-09-09T23:03:33.810Z,16.00
2022-09-09T23:06:04.106Z,15.90
2022-09-09T23:08:38.396Z,15.90
2022-09-09T23:11:10.721Z,15.80
2022-09-09T23:13:41.541Z,15.80
2022-09-09T23:16:16.833Z,15.80
2022-09-09T23:18:45.315Z,15.80
2022-09-09T23:21:14.645Z,15.80
2022-09-09T23:23:43.194Z,15.80
2022-09-09T23:26:14.315Z,15.80
2022-09-09T23:28:44.271Z,15.80
2022-09-09T23:31:13.253Z,15.70
2022-09-09T23:33:41.571Z,15.70
2022-09-09T23:36:12.958Z,15.70
2022-09-09T23:38:40.628Z,15.60
2022-09-09T23:41:10.905Z,15.60
2022-09-09T23:43:41.083Z,15.60
2022-09-09T23:46:09.682Z,15.60
2022-09-09T23:48:38.805Z,15.50
2022-09-09T23:51:06.905Z,15.50
2022-09-09T23:53:33.700Z,15.50
2022-09-09T23:56:00.481Z,15.50
2022-09-09T23:58:27.325Z,15.50
